createdAt,value
2022-08-26T00:01:54.429Z,6.65
2022-08-26T00:04:25.892Z,5.23
2022-08-26T00:06:56.759Z,4.95
2022-08-26T00:09:25.208Z,5.03
2022-08-26T00:11:53.922Z,8.05
2022-08-26T00:14:27.031Z,5.65
2022-08-26T00:16:55.775Z,5.28
2022-08-26T00:19:23.042Z,8.50
2022-08-26T00:21:51.317Z,5.03
2022-08-26T00:24:20.419Z,5.25
2022-08-26T00:26:48.475Z,5.05
2022-08-26T00:29:15.946Z,6.25
2022-08-26T00:31:45.353Z,6.63
2022-08-26T00:34:14.172Z,5.75
2022-08-26T00:36:43.552Z,3.67
2022-08-26T00:39:11.378Z,5.22
2022-08-26T00:41:39.724Z,2.88
2022-08-26T00:44:07.995Z,6.95
2022-08-26T00:46:37.375Z,3.67
2022-08-26T00:49:11.902Z,5.38
2022-08-26T00:51:57.324Z,4.55
2022-08-26T00:54:27.551Z,7.35
2022-08-26T00:56:59.922Z,5.45
2022-08-26T00:59:29.315Z,8.27
2022-08-26T01:02:02.799Z,5.13
2022-08-26T01:04:32.416Z,6.72
2022-08-26T01:07:00.090Z,6.28
2022-08-26T01:09:27.616Z,8.65
2022-08-26T01:11:58.069Z,7.75
2022-08-26T01:16:52.404Z,6.38
2022-08-26T01:19:24.033Z,6.45
2022-08-26T01:22:19.920Z,6.90
2022-08-26T01:24:48.345Z,7.75
2022-08-26T01:27:18.942Z,9.90
2022-08-26T01:29:48.792Z,7.72
2022-08-26T01:32:22.467Z,5.95
2022-08-26T01:34:50.937Z,7.88
2022-08-26T01:37:22.984Z,7.55
2022-08-26T01:39:52.399Z,8.60
2022-08-26T01:42:21.616Z,6.70
2022-08-26T01:44:57.323Z,9.48
2022-08-26T01:47:26.160Z,10.90
2022-08-26T01:49:55.158Z,7.95
2022-08-26T01:52:28.185Z,9.07
2022-08-26T01:54:57.668Z,8.35
2022-08-26T01:57:25.497Z,8.15
2022-08-26T01:59:55.524Z,12.07
2022-08-26T02:02:23.007Z,12.60
2022-08-26T02:05:00.498Z,13.55
2022-08-26T02:07:28.115Z,10.43
2022-08-26T02:09:55.424Z,9.85
2022-08-26T02:12:22.823Z,9.35
2022-08-26T02:14:53.774Z,11.82
2022-08-26T02:17:27.922Z,12.30
2022-08-26T02:19:55.685Z,14.70
2022-08-26T02:22:24.582Z,12.80
2022-08-26T02:24:55.025Z,12.68
2022-08-26T02:27:25.644Z,14.13
2022-08-26T02:30:01.408Z,14.88
2022-08-26T02:32:28.770Z,12.10
2022-08-26T02:34:56.041Z,11.93
2022-08-26T02:37:23.509Z,12.98
2022-08-26T02:39:50.913Z,12.15
2022-08-26T02:42:19.393Z,11.48
2022-08-26T02:44:46.612Z,10.48
2022-08-26T02:47:14.474Z,14.98
2022-08-26T02:49:47.238Z,15.25
2022-08-26T02:52:15.201Z,17.17
2022-08-26T02:54:42.561Z,15.30
2022-08-26T02:57:11.314Z,15.05
2022-08-26T02:59:39.977Z,14.57
2022-08-26T03:02:07.559Z,16.90
2022-08-26T03:04:34.848Z,15.25
2022-08-26T03:07:02.611Z,13.18
2022-08-26T03:09:30.030Z,15.25
2022-08-26T03:11:58.150Z,14.15
2022-08-26T03:14:26.119Z,14.77
2022-08-26T03:16:54.394Z,16.90
2022-08-26T03:19:23.897Z,16.60
2022-08-26T03:21:52.915Z,21.90
2022-08-26T03:24:26.421Z,13.73
2022-08-26T03:26:53.689Z,15.32
2022-08-26T03:29:40.506Z,14.40
2022-08-26T03:32:08.680Z,13.98
2022-08-26T03:34:36.596Z,17.95
2022-08-26T03:37:03.967Z,15.30
2022-08-26T03:39:31.537Z,19.70
2022-08-26T03:41:59.127Z,16.80
2022-08-26T03:44:26.699Z,16.85
2022-08-26T03:46:54.545Z,17.40
2022-08-26T03:49:22.609Z,14.73
2022-08-26T03:51:50.230Z,17.33
2022-08-26T03:54:17.888Z,16.65
2022-08-26T03:56:46.419Z,17.05
2022-08-26T03:59:14.202Z,17.63
2022-08-26T04:01:41.781Z,20.52
2022-08-26T04:04:09.054Z,19.63
2022-08-26T04:06:44.729Z,18.25
2022-08-26T04:09:15.495Z,18.92
2022-08-26T04:11:44.180Z,21.10
2022-08-26T04:14:21.222Z,21.95
2022-08-26T04:16:52.453Z,20.75
2022-08-26T04:19:21.008Z,21.73
2022-08-26T04:21:51.951Z,17.33
2022-08-26T04:24:21.580Z,23.38
2022-08-26T04:26:49.060Z,21.30
2022-08-26T04:29:20.050Z,22.13
2022-08-26T04:31:55.261Z,21.70
2022-08-26T04:34:28.351Z,24.90
2022-08-26T04:36:57.693Z,22.13
2022-08-26T04:39:25.274Z,22.15
2022-08-26T04:41:55.108Z,22.05
2022-08-26T04:44:24.897Z,21.23
2022-08-26T04:46:52.943Z,21.05
2022-08-26T04:49:21.073Z,18.58
2022-08-26T04:51:48.914Z,25.33
2022-08-26T04:54:16.520Z,19.33
2022-08-26T04:56:45.356Z,22.45
2022-08-26T04:59:17.098Z,21.17
2022-08-26T05:01:51.346Z,19.70
2022-08-26T05:04:20.062Z,24.88
2022-08-26T05:06:48.535Z,21.20
2022-08-26T05:09:18.621Z,22.67
2022-08-26T05:11:48.578Z,27.20
2022-08-26T05:14:23.100Z,21.02
2022-08-26T05:16:51.258Z,24.73
2022-08-26T05:19:19.498Z,22.63
2022-08-26T05:21:48.521Z,22.33
2022-08-26T05:24:17.904Z,26.90
2022-08-26T05:26:46.986Z,26.55
2022-08-26T05:29:16.785Z,24.15
2022-08-26T05:31:44.167Z,23.38
2022-08-26T05:34:11.525Z,22.38
2022-08-26T05:36:39.158Z,22.23
2022-08-26T05:39:07.252Z,23.58
2022-08-26T05:41:38.302Z,27.73
2022-08-26T05:44:08.794Z,28.45
2022-08-26T05:49:05.763Z,27.23
2022-08-26T05:51:34.191Z,28.48
2022-08-26T05:54:02.804Z,26.52
2022-08-26T05:56:31.017Z,25.63
2022-08-26T05:58:59.854Z,26.17
2022-08-26T06:01:28.167Z,22.75
2022-08-26T06:04:00.714Z,24.35
2022-08-26T06:06:32.310Z,26.98
2022-08-26T06:09:01.248Z,27.77
2022-08-26T06:11:30.533Z,27.80
2022-08-26T06:14:03.783Z,28.13
2022-08-26T06:16:34.867Z,26.90
2022-08-26T06:19:03.734Z,27.25
2022-08-26T06:21:40.127Z,27.85
2022-08-26T06:24:29.527Z,31.48
2022-08-26T06:27:04.296Z,27.35
2022-08-26T06:29:33.619Z,24.38
2022-08-26T06:32:01.507Z,29.73
2022-08-26T06:34:30.537Z,26.80
2022-08-26T06:37:01.412Z,22.10
2022-08-26T06:39:31.090Z,25.25
2022-08-26T06:41:59.916Z,23.03
2022-08-26T06:44:27.717Z,24.27
2022-08-26T06:46:55.489Z,25.80
2022-08-26T06:49:26.839Z,26.38
2022-08-26T06:51:58.626Z,22.42
2022-08-26T06:54:27.677Z,22.73
2022-08-26T06:56:57.000Z,23.98
2022-08-26T06:59:25.224Z,20.47
2022-08-26T07:01:53.495Z,18.95
2022-08-26T07:04:23.155Z,22.40
2022-08-26T07:06:53.352Z,19.77
2022-08-26T07:09:26.700Z,26.08
2022-08-26T07:11:58.352Z,19.17
2022-08-26T07:14:26.403Z,22.63
2022-08-26T07:16:54.135Z,21.83
2022-08-26T07:19:29.950Z,23.92
2022-08-26T07:22:02.147Z,22.42
2022-08-26T07:24:35.087Z,18.33
2022-08-26T07:27:05.652Z,16.63
2022-08-26T07:29:34.015Z,21.75
2022-08-26T07:32:01.508Z,19.00
2022-08-26T07:34:28.898Z,19.77
2022-08-26T07:36:56.999Z,19.55
2022-08-26T07:39:25.280Z,20.20
2022-08-26T07:41:53.127Z,18.83
2022-08-26T07:44:21.016Z,20.42
2022-08-26T07:46:53.376Z,18.73
2022-08-26T07:49:22.849Z,18.58
2022-08-26T07:51:51.172Z,19.90
2022-08-26T07:54:18.907Z,16.88
2022-08-26T07:56:48.529Z,16.08
2022-08-26T07:59:17.550Z,16.00
2022-08-26T08:01:45.752Z,19.33
2022-08-26T08:04:18.432Z,15.98
2022-08-26T08:06:46.634Z,20.25
2022-08-26T08:09:16.102Z,15.93
2022-08-26T08:11:44.676Z,18.45
2022-08-26T08:14:12.724Z,16.60
2022-08-26T08:16:45.999Z,18.73
2022-08-26T08:19:15.408Z,17.20
2022-08-26T08:21:43.810Z,17.65
2022-08-26T08:24:11.279Z,20.60
2022-08-26T08:26:39.211Z,13.48
2022-08-26T08:29:08.779Z,15.00
2022-08-26T08:31:57.110Z,15.05
2022-08-26T08:34:24.625Z,16.17
2022-08-26T08:36:53.813Z,15.32
2022-08-26T08:39:22.317Z,11.65
2022-08-26T08:42:16.047Z,12.40
2022-08-26T08:44:52.097Z,14.10
2022-08-26T08:47:38.096Z,12.48
2022-08-26T08:50:35.563Z,12.70
2022-08-26T08:53:26.134Z,14.90
2022-08-26T08:56:02.586Z,12.38
2022-08-26T08:59:07.419Z,15.13
2022-08-26T09:01:42.544Z,13.75
2022-08-26T09:04:40.402Z,13.43
2022-08-26T09:07:14.359Z,14.45
2022-08-26T09:09:44.560Z,12.20
2022-08-26T09:12:20.723Z,19.08
2022-08-26T09:15:11.841Z,14.25
2022-08-26T09:18:46.104Z,12.98
2022-08-26T09:21:15.891Z,11.98
2022-08-26T09:23:54.977Z,13.10
2022-08-26T09:26:29.327Z,11.48
2022-08-26T09:29:04.932Z,14.00
2022-08-26T09:31:35.905Z,11.77
2022-08-26T09:34:12.277Z,11.48
2022-08-26T09:36:56.398Z,13.55
2022-08-26T09:39:37.732Z,10.73
2022-08-26T09:42:22.768Z,13.68
2022-08-26T09:45:00.286Z,57.92
2022-08-26T09:47:33.178Z,10.30
2022-08-26T09:50:12.533Z,9.85
2022-08-26T09:52:40.630Z,13.40
2022-08-26T09:57:49.609Z,10.45
2022-08-26T10:02:54.767Z,14.27
2022-08-26T10:05:44.607Z,10.00
2022-08-26T10:08:28.246Z,9.55
2022-08-26T10:10:58.359Z,11.98
2022-08-26T10:13:36.463Z,10.95
2022-08-26T10:16:17.864Z,21.83
2022-08-26T10:19:00.610Z,11.70
2022-08-26T10:21:32.987Z,8.70
2022-08-26T10:24:02.326Z,10.85
2022-08-26T10:26:38.459Z,10.97
2022-08-26T10:29:14.151Z,10.40
2022-08-26T10:31:49.041Z,9.30
2022-08-26T10:34:18.961Z,12.18
2022-08-26T10:37:15.877Z,8.65
2022-08-26T10:39:57.342Z,11.07
2022-08-26T10:42:35.342Z,10.20
2022-08-26T10:45:11.615Z,11.45
2022-08-26T10:47:46.101Z,15.02
2022-08-26T10:50:13.536Z,23.85
2022-08-26T10:52:55.369Z,20.30
2022-08-26T10:55:39.077Z,13.57
2022-08-26T10:58:29.695Z,10.68
2022-08-26T11:01:33.452Z,9.05
2022-08-26T11:04:04.065Z,11.57
2022-08-26T11:06:31.555Z,8.57
2022-08-26T11:09:01.529Z,8.77
2022-08-26T11:14:28.531Z,6.57
2022-08-26T11:16:58.694Z,12.53
2022-08-26T11:19:50.862Z,7.22
2022-08-26T11:22:25.865Z,14.82
2022-08-26T11:24:53.168Z,11.88
2022-08-26T11:27:23.205Z,8.27
2022-08-26T11:30:10.164Z,7.07
2022-08-26T11:32:38.903Z,5.78
2022-08-26T11:35:33.764Z,5.88
2022-08-26T11:38:14.621Z,6.53
2022-08-26T11:40:42.229Z,6.60
2022-08-26T11:43:21.818Z,4.47
2022-08-26T11:46:00.378Z,6.03
2022-08-26T11:48:33.361Z,6.97
2022-08-26T11:51:05.923Z,7.55
2022-08-26T11:53:37.168Z,5.60
2022-08-26T11:56:08.928Z,10.65
2022-08-26T11:58:36.672Z,6.72
2022-08-26T12:01:09.592Z,5.20
2022-08-26T12:03:47.680Z,5.75
2022-08-26T12:06:23.022Z,4.20
2022-08-26T12:08:52.370Z,6.78
2022-08-26T12:11:28.609Z,6.82
2022-08-26T12:13:59.212Z,11.32
2022-08-26T12:16:38.370Z,8.45
2022-08-26T12:19:32.720Z,6.70
2022-08-26T12:22:23.812Z,6.65
2022-08-26T12:25:00.296Z,9.02
2022-08-26T12:27:30.811Z,15.40
2022-08-26T12:30:08.388Z,7.63
2022-08-26T12:32:39.088Z,8.50
2022-08-26T12:35:25.755Z,5.77
2022-08-26T12:37:54.073Z,6.03
2022-08-26T12:40:45.842Z,4.32
2022-08-26T12:43:17.203Z,4.15
2022-08-26T12:46:06.744Z,4.57
2022-08-26T12:48:37.395Z,4.07
2022-08-26T12:51:08.389Z,4.13
2022-08-26T12:53:42.101Z,8.20
2022-08-26T12:56:35.162Z,7.10
2022-08-26T12:59:26.234Z,3.90
2022-08-26T13:01:54.470Z,7.80
2022-08-26T13:04:41.052Z,4.32
2022-08-26T13:07:26.409Z,6.55
2022-08-26T13:09:55.930Z,4.90
2022-08-26T13:12:31.431Z,9.50
2022-08-26T13:15:00.126Z,9.65
2022-08-26T13:17:28.487Z,12.05
2022-08-26T13:19:59.008Z,10.75
2022-08-26T13:22:30.333Z,6.30
2022-08-26T13:24:57.955Z,5.43
2022-08-26T13:27:27.246Z,6.45
2022-08-26T13:29:55.092Z,4.47
2022-08-26T13:32:26.867Z,10.48
2022-08-26T13:34:56.554Z,6.10
2022-08-26T13:37:24.317Z,6.40
2022-08-26T13:40:05.421Z,6.80
2022-08-26T13:42:32.882Z,3.75
2022-08-26T13:45:02.369Z,7.05
2022-08-26T13:47:29.709Z,5.68
2022-08-26T13:49:57.128Z,5.55
2022-08-26T13:52:25.513Z,5.25
2022-08-26T13:55:00.512Z,5.65
2022-08-26T13:57:30.142Z,4.68
2022-08-26T13:59:59.387Z,6.90
2022-08-26T14:02:27.855Z,6.23
2022-08-26T14:04:55.962Z,16.90
2022-08-26T14:07:23.637Z,7.35
2022-08-26T14:09:50.900Z,5.38
2022-08-26T14:12:18.270Z,4.78
2022-08-26T14:14:45.622Z,4.00
2022-08-26T14:17:17.463Z,4.70
2022-08-26T14:19:48.182Z,4.10
2022-08-26T14:22:17.360Z,8.15
2022-08-26T14:24:45.253Z,5.57
2022-08-26T14:27:13.312Z,4.28
2022-08-26T14:29:41.146Z,4.53
2022-08-26T14:32:12.952Z,3.75
2022-08-26T14:34:41.550Z,6.90
2022-08-26T14:37:11.476Z,5.43
2022-08-26T14:39:41.106Z,6.18
2022-08-26T14:42:10.086Z,6.93
2022-08-26T14:44:38.132Z,4.53
2022-08-26T14:47:06.658Z,5.25
2022-08-26T14:49:34.072Z,8.13
2022-08-26T14:52:01.741Z,3.40
2022-08-26T14:54:29.572Z,5.57
2022-08-26T14:57:00.819Z,4.03
2022-08-26T14:59:31.046Z,6.90
2022-08-26T15:01:58.696Z,3.47
2022-08-26T15:04:26.489Z,3.70
2022-08-26T15:06:55.239Z,15.13
2022-08-26T15:09:23.338Z,4.28
2022-08-26T15:11:51.165Z,3.85
2022-08-26T15:14:20.108Z,6.70
2022-08-26T15:16:53.859Z,4.38
2022-08-26T15:19:22.088Z,3.78
2022-08-26T15:21:49.891Z,2.67
2022-08-26T15:24:19.576Z,7.10
2022-08-26T15:26:47.293Z,4.30
2022-08-26T15:29:15.014Z,4.70
2022-08-26T15:31:43.048Z,4.85
2022-08-26T15:34:16.000Z,3.20
2022-08-26T15:36:45.931Z,5.47
2022-08-26T15:39:14.842Z,4.50
2022-08-26T15:41:42.140Z,5.60
2022-08-26T15:44:10.205Z,3.65
2022-08-26T15:46:38.716Z,4.90
2022-08-26T15:49:06.657Z,11.15
2022-08-26T15:51:46.062Z,6.30
2022-08-26T15:54:14.607Z,4.13
2022-08-26T15:56:43.432Z,4.97
2022-08-26T15:59:11.932Z,4.50
2022-08-26T16:01:39.776Z,3.13
2022-08-26T16:04:07.448Z,3.88
2022-08-26T16:06:36.845Z,4.30
2022-08-26T16:09:05.631Z,4.22
2022-08-26T16:11:34.537Z,3.72
2022-08-26T16:14:02.499Z,4.43
2022-08-26T16:16:29.858Z,6.43
2022-08-26T16:18:57.199Z,4.35
2022-08-26T16:21:27.908Z,4.72
2022-08-26T16:23:56.184Z,3.72
2022-08-26T16:26:28.920Z,5.78
2022-08-26T16:28:56.263Z,3.60
2022-08-26T16:31:23.691Z,3.70
2022-08-26T16:33:51.452Z,4.97
2022-08-26T16:36:19.841Z,4.43
2022-08-26T16:38:53.443Z,3.63
2022-08-26T16:41:21.261Z,5.50
2022-08-26T16:43:48.823Z,6.65
2022-08-26T16:46:16.323Z,5.38
2022-08-26T16:48:44.070Z,4.75
2022-08-26T16:51:17.361Z,5.32
2022-08-26T16:53:45.723Z,5.20
2022-08-26T16:56:17.885Z,3.55
2022-08-26T16:58:45.208Z,7.80
2022-08-26T17:01:12.531Z,5.32
2022-08-26T17:03:40.017Z,4.07
2022-08-26T17:06:07.655Z,3.90
2022-08-26T17:08:37.058Z,4.78
2022-08-26T17:11:06.259Z,5.28
2022-08-26T17:13:35.197Z,4.30
2022-08-26T17:16:04.957Z,3.58
2022-08-26T17:18:33.466Z,6.80
2022-08-26T17:21:07.996Z,5.63
2022-08-26T17:23:36.260Z,4.22
2022-08-26T17:26:03.586Z,4.53
2022-08-26T17:28:30.873Z,2.28
2022-08-26T17:30:58.731Z,7.93
2022-08-26T17:33:26.348Z,5.20
2022-08-26T17:35:53.698Z,5.63
2022-08-26T17:38:21.385Z,8.80
2022-08-26T17:40:49.614Z,4.07
2022-08-26T17:43:17.461Z,4.10
2022-08-26T17:45:44.830Z,4.90
2022-08-26T17:48:12.274Z,6.57
2022-08-26T17:50:41.575Z,4.40
2022-08-26T17:53:12.732Z,8.07
2022-08-26T17:55:47.687Z,5.80
2022-08-26T17:58:20.264Z,3.72
2022-08-26T18:00:52.284Z,5.50
2022-08-26T18:03:19.727Z,6.43
2022-08-26T18:05:48.353Z,5.93
2022-08-26T18:08:15.696Z,6.72
2022-08-26T18:10:44.096Z,8.73
2022-08-26T18:13:11.616Z,6.25
2022-08-26T18:15:40.067Z,4.72
2022-08-26T18:18:07.753Z,4.50
2022-08-26T18:20:35.196Z,6.05
2022-08-26T18:23:02.387Z,3.72
2022-08-26T18:25:29.759Z,5.60
2022-08-26T18:27:56.996Z,5.05
2022-08-26T18:30:24.630Z,6.13
2022-08-26T18:32:52.530Z,5.90
2022-08-26T18:35:21.455Z,5.97
2022-08-26T18:37:48.839Z,7.60
2022-08-26T18:40:16.426Z,6.80
2022-08-26T18:42:43.996Z,5.22
2022-08-26T18:45:15.969Z,4.88
2022-08-26T18:47:43.987Z,5.22
2022-08-26T18:50:11.827Z,3.25
2022-08-26T18:52:39.662Z,5.28
2022-08-26T18:55:07.756Z,3.90
2022-08-26T18:57:35.035Z,4.80
2022-08-26T19:00:05.042Z,5.68
2022-08-26T19:05:00.241Z,7.35
2022-08-26T19:07:27.532Z,5.70
2022-08-26T19:09:54.851Z,4.90
2022-08-26T19:12:22.609Z,10.48
2022-08-26T19:14:54.156Z,4.28
2022-08-26T19:17:22.569Z,7.78
2022-08-26T19:19:50.104Z,6.00
2022-08-26T19:22:17.360Z,4.25
2022-08-26T19:24:44.635Z,7.72
2022-08-26T19:27:14.851Z,8.35
2022-08-26T19:29:42.409Z,7.50
2022-08-26T19:32:09.675Z,6.20
2022-08-26T19:34:37.068Z,6.07
2022-08-26T19:37:04.723Z,4.93
2022-08-26T19:39:32.001Z,6.70
2022-08-26T19:42:00.347Z,3.63
2022-08-26T19:44:45.936Z,5.38
2022-08-26T19:47:14.022Z,8.45
2022-08-26T19:49:41.311Z,13.90
2022-08-26T19:52:08.861Z,4.82
2022-08-26T19:54:36.359Z,5.53
2022-08-26T19:57:04.947Z,7.20
2022-08-26T19:59:33.091Z,5.55
2022-08-26T20:02:01.671Z,6.95
2022-08-26T20:04:30.966Z,5.95
2022-08-26T20:07:00.615Z,4.20
2022-08-26T20:09:29.524Z,6.13
2022-08-26T20:11:57.058Z,6.28
2022-08-26T20:14:25.705Z,4.00
2022-08-26T20:16:53.262Z,5.47
2022-08-26T20:19:39.213Z,4.93
2022-08-26T20:22:06.726Z,6.03
2022-08-26T20:24:35.583Z,5.07
2022-08-26T20:27:07.528Z,9.18
2022-08-26T20:29:36.089Z,4.97
2022-08-26T20:32:05.994Z,3.72
2022-08-26T20:37:01.174Z,5.05
2022-08-26T20:39:29.690Z,7.10
2022-08-26T20:41:57.809Z,4.15
2022-08-26T20:44:25.387Z,6.78
2022-08-26T20:46:52.880Z,7.18
2022-08-26T20:49:20.157Z,6.07
2022-08-26T20:51:51.433Z,5.53
2022-08-26T20:54:21.020Z,4.28
2022-08-26T20:56:50.621Z,5.93
2022-08-26T20:59:18.722Z,4.63
2022-08-26T21:01:46.441Z,8.32
2022-08-26T21:04:16.404Z,5.85
2022-08-26T21:06:49.010Z,6.57
2022-08-26T21:09:22.278Z,8.23
2022-08-26T21:11:50.423Z,9.00
2022-08-26T21:14:18.784Z,5.88
2022-08-26T21:16:46.957Z,4.20
2022-08-26T21:19:15.912Z,6.45
2022-08-26T21:21:44.521Z,5.75
2022-08-26T21:24:12.732Z,5.07
2022-08-26T21:26:40.302Z,7.20
2022-08-26T21:29:09.945Z,3.88
2022-08-26T21:31:42.177Z,5.10
2022-08-26T21:34:17.186Z,5.32
2022-08-26T21:36:45.892Z,9.10
2022-08-26T21:39:13.940Z,8.43
2022-08-26T21:41:42.684Z,5.60
2022-08-26T21:44:10.722Z,3.95
2022-08-26T21:46:38.110Z,3.42
2022-08-26T21:49:08.205Z,4.80
2022-08-26T21:54:10.577Z,6.57
2022-08-26T21:56:44.239Z,6.75
2022-08-26T21:59:12.508Z,8.07
2022-08-26T22:01:39.831Z,4.50
2022-08-26T22:04:08.626Z,4.88
2022-08-26T22:06:42.202Z,8.20
2022-08-26T22:09:10.415Z,5.22
2022-08-26T22:11:37.742Z,8.95
2022-08-26T22:14:05.508Z,4.75
2022-08-26T22:16:32.910Z,4.82
2022-08-26T22:19:00.749Z,6.07
2022-08-26T22:21:28.507Z,5.40
2022-08-26T22:23:58.186Z,4.57
2022-08-26T22:26:29.083Z,4.28
2022-08-26T22:28:59.038Z,4.18
2022-08-26T22:34:08.833Z,5.57
2022-08-26T22:36:42.655Z,5.38
2022-08-26T22:39:14.548Z,5.50
2022-08-26T22:41:43.122Z,5.68
2022-08-26T22:44:11.704Z,4.80
2022-08-26T22:46:39.924Z,5.00
2022-08-26T22:49:09.843Z,3.17
2022-08-26T22:51:37.139Z,5.00
2022-08-26T22:54:04.974Z,3.80
2022-08-26T22:56:32.341Z,4.35
2022-08-26T22:58:59.700Z,4.78
2022-08-26T23:01:27.149Z,6.75
2022-08-26T23:03:54.478Z,6.78
2022-08-26T23:06:21.854Z,7.35
2022-08-26T23:08:49.390Z,5.07
2022-08-26T23:11:17.519Z,5.03
2022-08-26T23:13:44.805Z,4.82
2022-08-26T23:16:12.975Z,6.10
2022-08-26T23:18:41.350Z,4.63
2022-08-26T23:21:09.271Z,4.47
2022-08-26T23:23:38.380Z,4.78
2022-08-26T23:26:08.057Z,9.77
2022-08-26T23:28:36.934Z,7.68
2022-08-26T23:31:04.752Z,4.13
2022-08-26T23:33:50.420Z,9.07
2022-08-26T23:36:18.416Z,3.42
2022-08-26T23:38:52.835Z,5.63
2022-08-26T23:41:24.431Z,4.68
2022-08-26T23:43:51.788Z,10.05
2022-08-26T23:46:19.750Z,9.55
2022-08-26T23:48:47.365Z,5.15
2022-08-26T23:51:33.523Z,10.43
2022-08-26T23:54:00.979Z,7.55
2022-08-26T23:56:29.130Z,5.18
2022-08-26T23:58:56.792Z,7.05
